createdAt,value
2023-04-16T00:01:17.698Z,11.17
2023-04-16T00:03:22.881Z,11.16
2023-04-16T00:05:28.098Z,11.16
2023-04-16T00:07:33.358Z,11.16
2023-04-16T00:09:41.008Z,11.17
2023-04-16T00:11:45.865Z,11.20
2023-04-16T00:13:50.735Z,11.21
2023-04-16T00:15:55.787Z,11.23
2023-04-16T00:18:00.785Z,11.23
2023-04-16T00:20:06.276Z,11.22
2023-04-16T00:22:11.153Z,11.21
2023-04-16T00:24:16.349Z,11.20
2023-04-16T00:26:23.735Z,11.20
2023-04-16T00:28:28.626Z,11.18
2023-04-16T00:30:33.475Z,11.18
2023-04-16T00:32:38.305Z,11.17
2023-04-16T00:34:43.103Z,11.14
2023-04-16T00:36:47.947Z,11.13
2023-04-16T00:38:52.953Z,11.11
2023-04-16T00:40:58.964Z,11.10
2023-04-16T00:43:06.450Z,11.09
2023-04-16T00:45:13.326Z,11.08
2023-04-16T00:47:18.197Z,11.10
2023-04-16T00:49:23.434Z,11.07
2023-04-16T00:51:28.385Z,11.05
2023-04-16T00:53:34.407Z,11.05
2023-04-16T00:55:39.490Z,11.01
2023-04-16T00:57:44.411Z,10.99
2023-04-16T00:59:51.767Z,10.96
2023-04-16T01:01:56.727Z,10.94
2023-04-16T01:04:01.840Z,10.92
2023-04-16T01:06:07.486Z,10.88
2023-04-16T01:08:18.995Z,10.85
2023-04-16T01:10:23.904Z,10.82
2023-04-16T01:12:28.690Z,10.80
2023-04-16T01:14:36.578Z,10.78
2023-04-16T01:16:44.178Z,10.77
2023-04-16T01:18:49.096Z,10.77
2023-04-16T01:20:56.723Z,10.75
2023-04-16T01:23:01.481Z,10.74
2023-04-16T01:25:06.491Z,10.71
2023-04-16T01:27:11.549Z,10.68
2023-04-16T01:29:16.375Z,10.67
2023-04-16T01:31:21.510Z,10.64
2023-04-16T01:33:33.387Z,10.63
2023-04-16T01:35:38.230Z,10.63
2023-04-16T01:37:45.713Z,10.61
2023-04-16T01:39:50.661Z,10.60
2023-04-16T01:41:55.618Z,10.60
2023-04-16T01:44:00.605Z,10.62
2023-04-16T01:46:16.587Z,10.58
2023-04-16T01:48:21.458Z,10.56
2023-04-16T01:50:26.909Z,10.52
2023-04-16T01:52:31.812Z,10.47
2023-04-16T01:54:39.330Z,10.44
2023-04-16T01:56:44.340Z,10.44
2023-04-16T01:58:49.365Z,10.43
2023-04-16T02:00:56.009Z,10.43
2023-04-16T02:03:01.572Z,10.43
2023-04-16T02:05:07.411Z,10.43
2023-04-16T02:07:14.206Z,10.42
2023-04-16T02:09:19.231Z,10.42
2023-04-16T02:11:26.828Z,10.42
2023-04-16T02:13:32.742Z,10.40
2023-04-16T02:15:37.503Z,10.41
2023-04-16T02:17:42.411Z,10.43
2023-04-16T02:19:48.580Z,10.44
2023-04-16T02:21:55.043Z,10.43
2023-04-16T02:23:59.833Z,10.42
2023-04-16T02:26:08.153Z,10.41
2023-04-16T02:28:16.845Z,10.40
2023-04-16T02:30:23.740Z,10.41
2023-04-16T02:32:30.389Z,10.42
2023-04-16T02:34:35.655Z,10.45
2023-04-16T02:36:41.075Z,10.45
2023-04-16T02:38:46.015Z,10.47
2023-04-16T02:40:51.031Z,10.48
2023-04-16T02:42:55.975Z,10.48
2023-04-16T02:45:03.443Z,10.47
2023-04-16T02:47:08.373Z,10.48
2023-04-16T02:49:13.158Z,10.46
2023-04-16T02:51:18.120Z,10.46
2023-04-16T02:53:22.967Z,10.46
2023-04-16T02:55:29.607Z,10.45
2023-04-16T02:57:34.526Z,10.44
2023-04-16T02:59:39.463Z,10.43
2023-04-16T03:01:47.084Z,10.44
2023-04-16T03:03:52.020Z,10.45
2023-04-16T03:05:56.819Z,10.45
2023-04-16T03:08:01.670Z,10.46
2023-04-16T03:10:07.328Z,10.43
2023-04-16T03:12:12.348Z,10.43
2023-04-16T03:14:17.207Z,10.43
2023-04-16T03:16:22.070Z,10.42
2023-04-16T03:18:29.522Z,10.42
2023-04-16T03:20:34.547Z,10.43
2023-04-16T03:22:39.474Z,10.44
2023-04-16T03:24:44.253Z,10.45
2023-04-16T03:26:49.026Z,10.45
2023-04-16T03:28:54.010Z,10.44
2023-04-16T03:30:58.784Z,10.43
2023-04-16T03:33:03.808Z,10.44
2023-04-16T03:35:12.867Z,10.41
2023-04-16T03:37:17.923Z,10.39
2023-04-16T03:39:23.020Z,10.37
2023-04-16T03:41:27.817Z,10.36
2023-04-16T03:43:32.724Z,10.38
2023-04-16T03:45:37.694Z,10.36
2023-04-16T03:47:42.882Z,10.35
2023-04-16T03:49:48.092Z,10.35
2023-04-16T03:51:55.715Z,10.34
2023-04-16T03:54:00.746Z,10.34
2023-04-16T03:56:06.845Z,10.34
2023-04-16T03:58:11.838Z,10.34
2023-04-16T04:00:17.096Z,10.34
2023-04-16T04:02:51.434Z,10.31
2023-04-16T04:04:58.511Z,10.33
2023-04-16T04:07:06.046Z,10.31
2023-04-16T04:09:11.184Z,10.33
2023-04-16T04:11:16.162Z,10.34
2023-04-16T04:13:22.710Z,10.36
2023-04-16T04:15:29.208Z,10.35
2023-04-16T04:17:34.103Z,10.35
2023-04-16T04:19:44.528Z,10.35
2023-04-16T04:21:55.937Z,10.34
2023-04-16T04:24:03.535Z,10.33
2023-04-16T04:26:08.593Z,10.35
2023-04-16T04:28:13.451Z,10.36
2023-04-16T04:30:18.324Z,10.38
2023-04-16T04:32:23.124Z,10.40
2023-04-16T04:34:28.266Z,10.42
2023-04-16T04:36:36.046Z,10.43
2023-04-16T04:38:41.115Z,10.43
2023-04-16T04:40:48.529Z,10.45
2023-04-16T04:42:55.747Z,10.45
2023-04-16T04:45:01.790Z,10.44
2023-04-16T04:47:09.383Z,10.44
2023-04-16T04:49:14.170Z,10.44
2023-04-16T04:51:19.004Z,10.45
2023-04-16T04:53:25.206Z,10.44
2023-04-16T04:55:30.163Z,10.44
2023-04-16T04:57:39.283Z,10.44
2023-04-16T04:59:44.122Z,10.43
2023-04-16T05:01:50.581Z,10.42
2023-04-16T05:03:55.438Z,10.42
2023-04-16T05:06:00.229Z,10.42
2023-04-16T05:08:05.143Z,10.42
2023-04-16T05:10:11.965Z,10.43
2023-04-16T05:12:17.365Z,10.42
2023-04-16T05:14:24.746Z,10.41
2023-04-16T05:16:29.553Z,10.40
2023-04-16T05:18:34.377Z,10.40
2023-04-16T05:20:39.819Z,10.39
2023-04-16T05:22:44.865Z,10.40
2023-04-16T05:24:49.619Z,10.40
2023-04-16T05:26:54.399Z,10.40
2023-04-16T05:28:59.216Z,10.41
2023-04-16T05:31:06.699Z,10.40
2023-04-16T05:33:11.737Z,10.41
2023-04-16T05:35:17.606Z,10.39
2023-04-16T05:37:22.680Z,10.41
2023-04-16T05:39:27.531Z,10.43
2023-04-16T05:41:32.538Z,10.41
2023-04-16T05:43:37.307Z,10.41
2023-04-16T05:45:42.446Z,10.43
2023-04-16T05:47:50.033Z,10.42
2023-04-16T05:49:54.969Z,10.42
2023-04-16T05:51:59.788Z,10.41
2023-04-16T05:54:04.633Z,10.40
2023-04-16T05:56:10.557Z,10.39
2023-04-16T05:58:15.346Z,10.40
2023-04-16T06:00:20.671Z,10.40
2023-04-16T06:02:25.679Z,10.42
2023-04-16T06:04:33.509Z,10.41
2023-04-16T06:06:38.785Z,10.38
2023-04-16T06:08:43.523Z,10.38
2023-04-16T06:10:50.006Z,10.39
2023-04-16T06:12:55.056Z,10.40
2023-04-16T06:14:59.812Z,10.40
2023-04-16T06:17:04.576Z,10.41
2023-04-16T06:19:09.903Z,10.42
2023-04-16T06:21:17.458Z,10.40
2023-04-16T06:23:22.251Z,10.41
2023-04-16T06:25:27.078Z,10.40
2023-04-16T06:27:32.188Z,10.41
2023-04-16T06:29:41.153Z,10.45
2023-04-16T06:31:46.778Z,10.43
2023-04-16T06:33:51.523Z,10.44
2023-04-16T06:35:56.858Z,10.44
2023-04-16T06:38:04.231Z,10.45
2023-04-16T06:40:10.493Z,10.49
2023-04-16T06:42:15.633Z,10.51
2023-04-16T06:44:21.065Z,10.52
2023-04-16T06:46:25.941Z,10.54
2023-04-16T06:48:30.998Z,10.55
2023-04-16T06:50:36.034Z,10.55
2023-04-16T06:52:41.057Z,10.55
2023-04-16T06:54:48.464Z,10.57
2023-04-16T06:56:53.332Z,10.58
2023-04-16T06:58:59.085Z,10.60
2023-04-16T07:01:04.204Z,10.60
2023-04-16T07:03:09.200Z,10.60
2023-04-16T07:05:14.210Z,10.63
2023-04-16T07:07:18.992Z,10.65
2023-04-16T07:09:23.843Z,10.68
2023-04-16T07:11:31.723Z,10.69
2023-04-16T07:13:36.662Z,10.70
2023-04-16T07:15:41.429Z,10.70
2023-04-16T07:17:47.318Z,10.71
2023-04-16T07:19:52.155Z,10.72
2023-04-16T07:21:57.193Z,10.72
2023-04-16T07:24:02.030Z,10.73
2023-04-16T07:26:06.904Z,10.77
2023-04-16T07:28:16.746Z,10.79
2023-04-16T07:30:21.702Z,10.81
2023-04-16T07:32:27.042Z,10.85
2023-04-16T07:34:31.898Z,10.87
2023-04-16T07:36:36.654Z,10.90
2023-04-16T07:38:41.494Z,10.92
2023-04-16T07:40:46.403Z,10.96
2023-04-16T07:42:51.430Z,11.02
2023-04-16T07:44:58.807Z,11.05
2023-04-16T07:47:05.400Z,11.08
2023-04-16T07:49:10.731Z,11.09
2023-04-16T07:51:15.766Z,11.11
2023-04-16T07:53:20.684Z,11.15
2023-04-16T07:55:25.708Z,11.17
2023-04-16T07:57:30.455Z,11.21
2023-04-16T07:59:35.292Z,11.23
2023-04-16T08:01:42.691Z,11.26
2023-04-16T08:03:47.645Z,11.28
2023-04-16T08:05:52.846Z,11.31
2023-04-16T08:07:57.728Z,11.31
2023-04-16T08:10:02.610Z,11.32
2023-04-16T08:12:07.909Z,11.35
2023-04-16T08:14:12.735Z,11.39
2023-04-16T08:16:17.721Z,11.39
2023-04-16T08:18:25.425Z,11.37
2023-04-16T08:20:30.463Z,11.34
2023-04-16T08:22:35.898Z,11.30
2023-04-16T08:24:40.713Z,11.25
2023-04-16T08:26:45.487Z,11.23
2023-04-16T08:28:50.298Z,11.24
2023-04-16T08:30:55.572Z,11.25
2023-04-16T08:33:01.502Z,11.26
2023-04-16T08:35:09.653Z,11.27
2023-04-16T08:37:14.512Z,11.29
2023-04-16T08:39:19.369Z,11.32
2023-04-16T08:41:27.114Z,11.32
2023-04-16T08:43:36.271Z,11.31
2023-04-16T08:45:41.621Z,11.33
2023-04-16T08:47:49.678Z,11.35
2023-04-16T08:49:58.507Z,11.40
2023-04-16T08:52:09.499Z,11.45
2023-04-16T08:54:21.478Z,11.49
2023-04-16T08:56:27.643Z,11.56
2023-04-16T08:58:35.822Z,11.59
2023-04-16T09:00:42.399Z,11.62
2023-04-16T09:02:47.742Z,11.65
2023-04-16T09:04:54.116Z,11.67
2023-04-16T09:07:01.627Z,11.71
2023-04-16T09:09:10.779Z,11.72
2023-04-16T09:11:16.826Z,11.74
2023-04-16T09:13:23.684Z,11.74
2023-04-16T09:15:29.686Z,11.75
2023-04-16T09:17:34.523Z,11.74
2023-04-16T09:19:39.342Z,11.73
2023-04-16T09:21:44.998Z,11.74
2023-04-16T09:23:50.644Z,11.77
2023-04-16T09:25:58.839Z,11.76
2023-04-16T09:28:03.700Z,11.78
2023-04-16T09:30:22.853Z,11.79
2023-04-16T09:32:29.299Z,11.83
2023-04-16T09:34:36.155Z,11.83
2023-04-16T09:36:40.975Z,11.85
2023-04-16T09:38:49.635Z,11.86
2023-04-16T09:41:10.024Z,11.85
2023-04-16T09:43:15.881Z,11.86
2023-04-16T09:45:21.032Z,11.86
2023-04-16T09:47:26.664Z,11.91
2023-04-16T09:49:31.709Z,11.92
2023-04-16T09:51:40.142Z,11.92
2023-04-16T09:53:45.138Z,11.95
2023-04-16T09:55:49.950Z,11.99
2023-04-16T09:58:04.614Z,12.01
2023-04-16T10:00:12.063Z,12.01
2023-04-16T10:02:16.900Z,12.03
2023-04-16T10:04:22.543Z,12.03
2023-04-16T10:06:28.316Z,12.05
2023-04-16T10:08:33.123Z,12.08
2023-04-16T10:10:37.984Z,12.11
2023-04-16T10:12:43.818Z,12.13
2023-04-16T10:14:51.675Z,12.16
2023-04-16T10:16:56.937Z,12.18
2023-04-16T10:19:02.487Z,12.17
2023-04-16T10:21:08.669Z,12.18
2023-04-16T10:23:14.790Z,12.18
2023-04-16T10:25:20.337Z,12.18
2023-04-16T10:27:25.857Z,12.19
2023-04-16T10:29:32.762Z,12.20
2023-04-16T10:31:41.569Z,12.19
2023-04-16T10:33:47.612Z,12.17
2023-04-16T10:36:06.740Z,12.15
2023-04-16T10:38:26.074Z,12.15
2023-04-16T10:40:31.003Z,12.18
2023-04-16T10:42:35.785Z,12.18
2023-04-16T10:44:43.446Z,12.19
2023-04-16T10:46:52.604Z,12.21
2023-04-16T10:48:59.066Z,12.21
2023-04-16T10:51:03.978Z,12.21
2023-04-16T10:53:23.013Z,12.18
2023-04-16T10:55:28.293Z,12.18
2023-04-16T10:57:33.696Z,12.15
2023-04-16T10:59:40.540Z,12.16
2023-04-16T11:01:46.870Z,12.17
2023-04-16T11:03:55.235Z,12.15
2023-04-16T11:06:14.670Z,12.16
2023-04-16T11:08:19.401Z,12.17
2023-04-16T11:10:24.176Z,12.20
2023-04-16T11:12:35.947Z,12.18
2023-04-16T11:14:42.065Z,12.18
2023-04-16T11:16:47.035Z,12.21
2023-04-16T11:18:56.313Z,12.23
2023-04-16T11:21:02.031Z,12.28
2023-04-16T11:23:13.414Z,12.31
2023-04-16T11:25:22.776Z,12.34
2023-04-16T11:27:28.189Z,12.37
2023-04-16T11:29:32.967Z,12.39
2023-04-16T11:31:38.147Z,12.40
2023-04-16T11:33:42.961Z,12.43
2023-04-16T11:35:59.864Z,12.45
2023-04-16T11:38:06.222Z,12.47
2023-04-16T11:40:12.706Z,12.48
2023-04-16T11:42:23.682Z,12.47
2023-04-16T11:44:30.602Z,12.50
2023-04-16T11:46:42.481Z,12.51
2023-04-16T11:48:55.585Z,12.53
2023-04-16T11:51:03.298Z,12.53
2023-04-16T11:53:08.797Z,12.55
2023-04-16T11:55:13.742Z,12.56
2023-04-16T11:57:27.542Z,12.58
2023-04-16T11:59:33.425Z,12.61
2023-04-16T12:01:39.399Z,12.64
2023-04-16T12:03:46.993Z,12.65
2023-04-16T12:05:52.274Z,12.69
2023-04-16T12:08:00.017Z,12.70
2023-04-16T12:10:11.878Z,12.71
2023-04-16T12:12:33.356Z,12.72
2023-04-16T12:14:38.124Z,12.73
2023-04-16T12:16:42.886Z,12.75
2023-04-16T12:19:04.140Z,12.77
2023-04-16T12:21:08.974Z,12.77
2023-04-16T12:23:26.055Z,12.76
2023-04-16T12:25:31.690Z,12.78
2023-04-16T12:27:55.899Z,12.80
2023-04-16T12:30:08.860Z,12.80
2023-04-16T12:32:25.133Z,12.83
2023-04-16T12:34:48.361Z,12.85
2023-04-16T12:37:11.158Z,12.83
2023-04-16T12:39:19.293Z,12.84
2023-04-16T12:41:24.051Z,12.86
2023-04-16T12:43:29.021Z,12.87
2023-04-16T12:45:33.785Z,12.90
2023-04-16T12:47:38.981Z,12.93
2023-04-16T12:49:44.673Z,12.95
2023-04-16T12:51:49.882Z,12.92
2023-04-16T12:53:54.640Z,12.92
2023-04-16T12:56:02.296Z,12.92
2023-04-16T12:58:07.702Z,12.93
2023-04-16T13:00:14.922Z,12.92
2023-04-16T13:02:19.732Z,12.91
2023-04-16T13:04:25.969Z,12.90
2023-04-16T13:06:31.623Z,12.89
2023-04-16T13:08:36.530Z,12.87
2023-04-16T13:10:41.374Z,12.87
2023-04-16T13:12:49.203Z,12.87
2023-04-16T13:14:54.188Z,12.87
2023-04-16T13:16:58.925Z,12.87
2023-04-16T13:19:03.691Z,12.86
2023-04-16T13:21:08.451Z,12.87
2023-04-16T13:23:14.196Z,12.87
2023-04-16T13:25:19.337Z,12.88
2023-04-16T13:27:24.164Z,12.88
2023-04-16T13:29:31.539Z,12.87
2023-04-16T13:31:36.362Z,12.89
2023-04-16T13:33:41.166Z,12.89
2023-04-16T13:35:45.956Z,12.89
2023-04-16T13:37:50.956Z,12.90
2023-04-16T13:39:56.666Z,12.89
2023-04-16T13:42:01.486Z,12.90
2023-04-16T13:44:06.531Z,12.92
2023-04-16T13:46:13.893Z,12.94
2023-04-16T13:48:18.945Z,12.95
2023-04-16T13:50:23.773Z,12.95
2023-04-16T13:52:28.562Z,12.95
2023-04-16T13:54:33.701Z,12.95
2023-04-16T13:56:38.599Z,12.93
2023-04-16T13:58:43.695Z,12.92
2023-04-16T14:00:48.553Z,12.91
2023-04-16T14:02:56.259Z,12.92
2023-04-16T14:05:01.570Z,12.95
2023-04-16T14:07:06.366Z,12.96
2023-04-16T14:09:11.536Z,12.97
2023-04-16T14:11:16.386Z,13.00
2023-04-16T14:13:21.197Z,13.00
2023-04-16T14:15:27.597Z,13.00
2023-04-16T14:17:32.406Z,12.99
2023-04-16T14:19:39.750Z,13.00
2023-04-16T14:21:44.549Z,13.01
2023-04-16T14:23:49.261Z,13.03
2023-04-16T14:25:54.086Z,13.03
2023-04-16T14:27:58.979Z,13.03
2023-04-16T14:30:03.858Z,13.03
2023-04-16T14:32:09.501Z,13.05
2023-04-16T14:34:14.269Z,13.06
2023-04-16T14:36:21.681Z,13.07
2023-04-16T14:38:26.685Z,13.10
2023-04-16T14:40:31.640Z,13.11
2023-04-16T14:42:36.795Z,13.11
2023-04-16T14:44:41.677Z,13.12
2023-04-16T14:46:46.560Z,13.12
2023-04-16T14:48:51.371Z,13.15
2023-04-16T14:50:56.630Z,13.17
2023-04-16T14:53:04.224Z,13.20
2023-04-16T14:55:10.061Z,13.22
2023-04-16T14:57:14.805Z,13.23
2023-04-16T14:59:19.583Z,13.24
2023-04-16T15:01:24.446Z,13.25
2023-04-16T15:03:29.739Z,13.24
2023-04-16T15:05:34.541Z,13.26
2023-04-16T15:07:39.343Z,13.27
2023-04-16T15:09:46.657Z,13.27
2023-04-16T15:11:51.452Z,13.27
2023-04-16T15:13:56.162Z,13.25
2023-04-16T15:16:01.043Z,13.23
2023-04-16T15:18:06.518Z,13.22
2023-04-16T15:20:13.081Z,13.20
2023-04-16T15:22:17.803Z,13.19
2023-04-16T15:24:22.672Z,13.16
2023-04-16T15:26:29.959Z,13.17
2023-04-16T15:28:34.770Z,13.17
2023-04-16T15:30:40.619Z,13.17
2023-04-16T15:32:46.728Z,13.18
2023-04-16T15:34:52.076Z,13.19
2023-04-16T15:36:56.818Z,13.19
2023-04-16T15:39:01.588Z,13.21
2023-04-16T15:41:06.431Z,13.23
2023-04-16T15:43:13.769Z,13.23
2023-04-16T15:45:19.095Z,13.22
2023-04-16T15:47:24.050Z,13.23
2023-04-16T15:49:29.254Z,13.25
2023-04-16T15:51:34.100Z,13.24
2023-04-16T15:53:39.098Z,13.23
2023-04-16T15:55:45.301Z,13.24
2023-04-16T15:57:50.116Z,13.27
2023-04-16T16:00:06.525Z,13.31
2023-04-16T16:02:12.317Z,13.31
2023-04-16T16:04:17.282Z,13.30
2023-04-16T16:06:22.331Z,13.29
2023-04-16T16:08:27.107Z,13.29
2023-04-16T16:10:31.916Z,13.27
2023-04-16T16:12:37.525Z,13.25
2023-04-16T16:14:43.883Z,13.23
2023-04-16T16:16:51.393Z,13.22
2023-04-16T16:18:56.665Z,13.24
2023-04-16T16:21:02.247Z,13.24
2023-04-16T16:23:07.344Z,13.26
2023-04-16T16:25:12.965Z,13.26
2023-04-16T16:27:17.727Z,13.27
2023-04-16T16:29:22.424Z,13.27
2023-04-16T16:31:27.408Z,13.28
2023-04-16T16:33:34.778Z,13.28
2023-04-16T16:35:39.574Z,13.29
2023-04-16T16:37:44.477Z,13.30
2023-04-16T16:39:49.195Z,13.29
2023-04-16T16:41:54.920Z,13.28
2023-04-16T16:43:59.797Z,13.25
2023-04-16T16:46:04.985Z,13.23
2023-04-16T16:48:10.643Z,13.23
2023-04-16T16:50:18.098Z,13.20
2023-04-16T16:52:25.585Z,13.20
2023-04-16T16:54:30.548Z,13.18
2023-04-16T16:56:35.348Z,13.18
2023-04-16T16:58:40.068Z,13.15
2023-04-16T17:00:45.042Z,13.13
2023-04-16T17:02:51.545Z,13.11
2023-04-16T17:04:59.094Z,13.08
2023-04-16T17:07:06.403Z,13.06
2023-04-16T17:09:11.553Z,13.04
2023-04-16T17:11:17.442Z,13.02
2023-04-16T17:13:22.175Z,12.98
2023-04-16T17:15:27.145Z,12.95
2023-04-16T17:17:32.837Z,12.90
2023-04-16T17:19:37.541Z,12.87
2023-04-16T17:21:42.341Z,12.85
2023-04-16T17:23:49.697Z,12.83
2023-04-16T17:25:54.526Z,12.84
2023-04-16T17:27:59.245Z,12.83
2023-04-16T17:30:05.533Z,12.86
2023-04-16T17:32:10.286Z,12.86
2023-04-16T17:34:15.115Z,12.85
2023-04-16T17:36:19.993Z,12.86
2023-04-16T17:38:24.761Z,12.85
2023-04-16T17:40:32.049Z,12.84
2023-04-16T17:42:37.161Z,12.83
2023-04-16T17:44:41.911Z,12.80
2023-04-16T17:46:46.611Z,12.78
2023-04-16T17:48:51.946Z,12.77
2023-04-16T17:50:56.751Z,12.72
2023-04-16T17:53:03.917Z,12.71
2023-04-16T17:55:09.855Z,12.68
2023-04-16T17:57:17.629Z,12.62
2023-04-16T17:59:22.575Z,12.59
2023-04-16T18:01:27.641Z,12.57
2023-04-16T18:03:32.897Z,12.54
2023-04-16T18:05:37.884Z,12.51
2023-04-16T18:07:43.855Z,12.49
2023-04-16T18:09:48.611Z,12.45
2023-04-16T18:11:53.424Z,12.43
2023-04-16T18:14:00.984Z,12.40
2023-04-16T18:16:07.233Z,12.37
2023-04-16T18:18:12.238Z,12.34
2023-04-16T18:20:19.583Z,12.30
2023-04-16T18:22:26.346Z,12.27
2023-04-16T18:24:33.559Z,12.23
2023-04-16T18:26:40.757Z,12.23
2023-04-16T18:28:46.080Z,12.24
2023-04-16T18:30:53.486Z,12.24
2023-04-16T18:35:06.423Z,12.27
2023-04-16T18:37:11.498Z,12.29
2023-04-16T18:39:16.479Z,12.29
2023-04-16T18:41:21.669Z,12.28
2023-04-16T18:43:27.184Z,12.28
2023-04-16T18:47:41.651Z,12.23
2023-04-16T18:49:46.583Z,12.21
2023-04-16T18:51:51.390Z,12.18
2023-04-16T18:53:56.285Z,12.16
2023-04-16T18:56:01.127Z,12.12
2023-04-16T18:58:06.359Z,12.10
2023-04-16T19:00:13.008Z,12.10
2023-04-16T19:02:17.965Z,12.08
2023-04-16T19:04:25.596Z,12.07
2023-04-16T19:06:32.070Z,12.04
2023-04-16T19:08:36.927Z,12.03
2023-04-16T19:10:41.705Z,12.03
2023-04-16T19:12:46.452Z,12.01
2023-04-16T19:14:51.356Z,12.00
2023-04-16T19:16:56.278Z,11.99
2023-04-16T19:19:01.087Z,11.97
2023-04-16T19:21:10.901Z,11.95
2023-04-16T19:23:15.853Z,11.93
2023-04-16T19:25:20.738Z,11.90
2023-04-16T19:27:25.549Z,11.88
2023-04-16T19:29:30.727Z,11.89
2023-04-16T19:31:36.162Z,11.90
2023-04-16T19:33:41.335Z,11.90
2023-04-16T19:35:46.229Z,11.90
2023-04-16T19:37:56.375Z,11.89
2023-04-16T19:40:02.281Z,11.88
2023-04-16T19:42:07.609Z,11.89
2023-04-16T19:44:12.511Z,11.87
2023-04-16T19:46:18.031Z,11.86
2023-04-16T19:48:23.025Z,11.84
2023-04-16T19:50:27.817Z,11.84
2023-04-16T19:52:37.463Z,11.83
2023-04-16T19:54:45.526Z,11.83
2023-04-16T19:56:52.003Z,11.81
2023-04-16T19:58:56.949Z,11.79
2023-04-16T20:01:01.933Z,11.76
2023-04-16T20:03:08.314Z,11.75
2023-04-16T20:05:13.880Z,11.73
2023-04-16T20:07:18.825Z,11.72
2023-04-16T20:09:23.584Z,11.70
2023-04-16T20:11:31.147Z,11.68
2023-04-16T20:13:37.761Z,11.67
2023-04-16T20:15:42.537Z,11.66
2023-04-16T20:17:47.521Z,11.65
2023-04-16T20:19:52.493Z,11.64
2023-04-16T20:21:57.317Z,11.63
2023-04-16T20:24:02.388Z,11.60
2023-04-16T20:26:07.563Z,11.60
2023-04-16T20:28:16.418Z,11.57
2023-04-16T20:30:22.709Z,11.57
2023-04-16T20:32:28.119Z,11.57
2023-04-16T20:34:36.709Z,11.58
2023-04-16T20:36:41.504Z,11.57
2023-04-16T20:38:46.757Z,11.57
2023-04-16T20:41:06.453Z,11.55
2023-04-16T20:43:14.502Z,11.51
2023-04-16T20:45:22.390Z,11.48
2023-04-16T20:47:27.319Z,11.48
2023-04-16T20:49:34.736Z,11.46
2023-04-16T20:51:39.500Z,11.43
2023-04-16T20:53:44.196Z,11.41
2023-04-16T20:55:49.033Z,11.40
2023-04-16T20:57:53.839Z,11.39
2023-04-16T20:59:58.650Z,11.37
2023-04-16T21:02:06.169Z,11.34
2023-04-16T21:04:11.423Z,11.33
2023-04-16T21:06:18.067Z,11.31
2023-04-16T21:08:23.228Z,11.28
2023-04-16T21:10:28.032Z,11.25
2023-04-16T21:12:32.955Z,11.22
2023-04-16T21:14:37.710Z,11.19
2023-04-16T21:16:42.476Z,11.16
2023-04-16T21:18:49.811Z,11.13
2023-04-16T21:20:54.565Z,11.13
2023-04-16T21:22:59.491Z,11.11
2023-04-16T21:25:04.660Z,11.07
2023-04-16T21:27:09.395Z,11.07
2023-04-16T21:29:14.317Z,11.03
2023-04-16T21:31:19.321Z,11.01
2023-04-16T21:33:24.110Z,10.97
2023-04-16T21:35:31.531Z,10.95
2023-04-16T21:37:36.660Z,10.92
2023-04-16T21:39:41.395Z,10.90
2023-04-16T21:41:46.277Z,10.89
2023-04-16T21:43:51.045Z,10.88
2023-04-16T21:45:56.354Z,10.87
2023-04-16T21:48:01.129Z,10.88
2023-04-16T21:50:06.497Z,10.89
2023-04-16T21:52:14.431Z,10.90
2023-04-16T21:54:20.841Z,10.89
2023-04-16T21:56:26.044Z,10.91
2023-04-16T21:58:31.174Z,10.92
2023-04-16T22:00:36.085Z,10.92
2023-04-16T22:04:46.515Z,10.89
2023-04-16T22:06:55.947Z,10.89
2023-04-16T22:09:03.270Z,10.87
2023-04-16T22:11:08.160Z,10.86
2023-04-16T22:13:13.926Z,10.83
2023-04-16T22:15:18.950Z,10.80
2023-04-16T22:17:23.887Z,10.77
2023-04-16T22:19:28.857Z,10.75
2023-04-16T22:21:34.152Z,10.75
2023-04-16T22:23:39.328Z,10.74
2023-04-16T22:25:46.754Z,10.74
2023-04-16T22:27:51.722Z,10.75
2023-04-16T22:29:56.497Z,10.75
2023-04-16T22:32:02.066Z,10.77
2023-04-16T22:34:07.163Z,10.77
2023-04-16T22:36:12.450Z,10.78
2023-04-16T22:38:17.406Z,10.77
2023-04-16T22:40:22.201Z,10.77
2023-04-16T22:42:30.207Z,10.77
2023-04-16T22:44:34.974Z,10.76
2023-04-16T22:46:39.723Z,10.74
2023-04-16T22:48:44.488Z,10.73
2023-04-16T22:50:51.151Z,10.72
2023-04-16T22:52:56.100Z,10.71
2023-04-16T22:55:00.828Z,10.71
2023-04-16T22:57:05.553Z,10.71
2023-04-16T22:59:13.234Z,10.68
2023-04-16T23:01:19.559Z,10.66
2023-04-16T23:03:24.396Z,10.63
2023-04-16T23:05:29.473Z,10.61
2023-04-16T23:07:34.239Z,10.59
2023-04-16T23:09:39.033Z,10.58
2023-04-16T23:11:43.744Z,10.58
2023-04-16T23:13:48.530Z,10.58
2023-04-16T23:15:55.999Z,10.57
2023-04-16T23:18:01.131Z,10.58
2023-04-16T23:20:08.161Z,10.58
2023-04-16T23:22:12.903Z,10.57
2023-04-16T23:24:17.632Z,10.55
2023-04-16T23:26:22.510Z,10.52
2023-04-16T23:28:27.479Z,10.50
2023-04-16T23:30:32.237Z,10.47
2023-04-16T23:32:39.644Z,10.44
2023-04-16T23:34:44.605Z,10.42
2023-04-16T23:36:49.287Z,10.37
2023-04-16T23:38:54.092Z,10.31
2023-04-16T23:40:58.922Z,10.28
2023-04-16T23:43:03.748Z,10.26
2023-04-16T23:45:09.586Z,10.26
2023-04-16T23:47:14.378Z,10.27
2023-04-16T23:49:21.680Z,10.25
2023-04-16T23:51:26.788Z,10.26
2023-04-16T23:53:31.648Z,10.26
2023-04-16T23:55:36.405Z,10.27
2023-04-16T23:57:41.116Z,10.26
2023-04-16T23:59:45.997Z,10.27
